ADDS METAR Data INFO
IDs: Format: Raw Decoded Include TAF

Data at: 0430 UTC 28 Jul 2017

KEVW 280353Z AUTO 36007KT 10SM CLR 18/08 A3030 RMK AO2 SLP167 T01780078
KEVW 280253Z AUTO 01008KT 10SM CLR 19/08 A3030 RMK AO2 WSHFT 0218 SLP170 T01890083 53003
KEVW 280238Z AUTO 01008KT 10SM CLR 20/08 A3029 RMK AO2 WSHFT 0218 T02000083
KEVW 280153Z AUTO 29012KT 10SM CLR 23/02 A3028 RMK AO2 SLP158 T02330017
KEVW 280053Z AUTO 26012KT 10SM CLR 25/02 A3028 RMK AO2 SLP160 T02500017
KEVW 272353Z AUTO 28017G22KT 10SM CLR 26/03 A3029 RMK AO2 SLP159 T02610033 10272 20239 56008
KEVW 272253Z AUTO 25015G21KT 10SM FEW075 27/07 A3029 RMK AO2 SLP161 T02670067
KEVW 272153Z AUTO 25013KT 10SM BKN065 BKN090 26/08 A3030 RMK AO2 SLP167 T02560083
KEVW 272053Z AUTO 26014G21KT 10SM SCT095 25/08 A3031 RMK AO2 SLP169 T02500078 58008
KEVW 271953Z AUTO 26011G24KT 10SM SCT065 26/08 A3033 RMK AO2 PK WND 23026/1933 SLP170 T02560083
KEVW 271853Z AUTO 25017G24KT 10SM CLR 26/08 A3034 RMK AO2 PK WND 27027/1805 SLP176 T02560083
KEVW 271753Z AUTO 25012G17KT 10SM CLR 24/09 A3035 RMK AO2 SLP173 T02390094 10239 20106 58006
KEVW 271653Z AUTO 25007G16KT 10SM CLR 22/11 A3036 RMK AO2 SLP180 T02220106
KEVW 271553Z AUTO 23007KT 10SM CLR 20/10 A3036 RMK AO2 SLP186 T02000100
KEVW 271453Z AUTO 21006KT 10SM CLR 17/11 A3037 RMK AO2 SLP192 T01670111 51006
KEVW 271353Z AUTO 20007KT 10SM CLR 14/11 A3036 RMK AO2 SLP188 T01390111
KEVW 271253Z AUTO 19005KT 10SM CLR 11/10 A3036 RMK AO2 SLP189 T01110100
KEVW 271153Z AUTO 16003KT 10SM CLR 12/10 A3035 RMK AO2 SLP185 60000 7//// T01220100 10178 20111 53001
KEVW 271053Z AUTO 22005KT 10SM CLR 12/11 A3034 RMK AO2 SLP185 T01170106
KEVW 270953Z AUTO 21008KT 10SM CLR 12/10 A3034 RMK AO2 SLP184 T01170100
KEVW 270853Z AUTO 18005KT 10SM FEW085 13/11 A3034 RMK AO2 SLP184 60000 T01330106 56007
KEVW 270753Z AUTO 14006KT 10SM SCT085 14/10 A3035 RMK AO2 SLP186 T01390100
KEVW 270653Z AUTO 17009KT 10SM FEW055 BKN090 BKN110 14/11 A3035 RMK AO2 PK WND 22031/0554 LTG DSNT E AND SE RAB0557E13B32E41 TSB04E19 SLP190 P0000 T01440106 402560128
KEVW 270625Z AUTO 20013KT 10SM VCTS SCT060 BKN075 OVC090 15/12 A3036 RMK AO2 PK WND 22031/0554 LTG DSNT SE RAB0557E13 TSB04E19 P0000 T01500117
KEVW 270610Z AUTO 22017KT 10SM -TSRA FEW060 BKN080 OVC120 16/12 A3037 RMK AO2 PK WND 22031/0554 LTG DSNT SE AND S RAB0557 TSB04 P0000 T01560117
KEVW 270553Z AUTO 23014G26KT 10SM FEW055 SCT095 BKN120 18/12 A3037 RMK AO2 PK WND 22026/0553 LTG DSNT S SLP188 T01780117 10256 20172 53014
KEVW 270453Z AUTO 32004KT 10SM SCT055 18/11 A3035 RMK AO2 SLP185 T01830111
KEVW 270353Z AUTO 32007KT 10SM CLR 19/11 A3033 RMK AO2 SLP183 T01890106
KEVW 270253Z AUTO 26008KT 10SM CLR 20/11 A3032 RMK AO2 SLP178 T02000106 53003
KEVW 270153Z AUTO 25006KT 10SM FEW060 24/09 A3031 RMK AO2 SLP169 T02390094
KEVW 270053Z AUTO 03007KT 10SM FEW065 25/11 A3030 RMK AO2 SLP166 T02500111
KEVW 262353Z AUTO 32006KT 10SM SCT055 24/11 A3031 RMK AO2 SLP167 60000 T02440106 10256 20183 56011
KEVW 262253Z AUTO 30010KT 10SM FEW050 23/11 A3032 RMK AO2 SLP174 T02330106
KEVW 262153Z AUTO 29008KT 260V330 10SM SCT048 25/11 A3033 RMK AO2 SLP176 T02500111
KEVW 262053Z AUTO 30007G15KT 10SM SCT043 23/12 A3035 RMK AO2 LTG DSNT SE SLP184 60000 T02330122 58006
KEVW 261953Z AUTO 26009KT 10SM SCT043 SCT050 BKN065 22/12 A3036 RMK AO2 LTG DSNT NE RAE06 SLP186 P0000 T02220122
KEVW 261853Z AUTO 25010KT 10SM -RA OVC080 19/13 A3037 RMK AO2 RAB29 SLP199 P0000 T01940128
KEVW 261753Z AUTO 22010KT 10SM OVC090 21/11 A3037 RMK AO2 LTG DSNT NE SLP194 6//// T02110111 10211 20128 50001
KEVW 261721Z AUTO 23007KT 10SM OVC080 19/14 A3038 RMK AO2 T01890139
KEVW 261706Z AUTO 23007KT 10SM VCTS OVC070 18/14 A3038 RMK AO2 LTG DSNT NW T01830144
KEVW 261653Z AUTO 23010KT 10SM OVC070 18/14 A3038 RMK AO2 LTG DSNT NW SLP201 T01780144